createdAt,value
2018-01-17T00:00:50.860Z,84.04
2018-01-17T00:03:18.506Z,83.52
2018-01-17T00:05:46.128Z,83.65
2018-01-17T00:08:13.679Z,83.84
2018-01-17T00:10:41.251Z,84.29
2018-01-17T00:13:09.187Z,84.38
2018-01-17T00:15:36.738Z,84.30
2018-01-17T00:18:04.598Z,83.70
2018-01-17T00:20:32.218Z,83.86
2018-01-17T00:23:00.043Z,84.11
2018-01-17T00:25:27.892Z,84.12
2018-01-17T00:27:55.766Z,84.18
2018-01-17T00:32:57.332Z,83.96
2018-01-17T00:35:24.888Z,84.14
2018-01-17T00:37:52.770Z,84.20
2018-01-17T00:40:20.363Z,84.16
2018-01-17T00:42:47.897Z,84.22
2018-01-17T00:45:15.464Z,84.12
2018-01-17T00:47:43.324Z,83.87
2018-01-17T00:50:10.920Z,83.73
2018-01-17T00:52:38.606Z,83.66
2018-01-17T00:55:06.218Z,83.67
2018-01-17T00:57:34.083Z,83.79
2018-01-17T01:00:01.944Z,83.70
2018-01-17T01:02:29.813Z,83.75
2018-01-17T01:04:57.366Z,83.91
2018-01-17T01:07:25.002Z,83.96
2018-01-17T01:09:52.621Z,84.22
2018-01-17T01:12:20.198Z,84.14
2018-01-17T01:14:47.737Z,84.07
2018-01-17T01:17:15.378Z,84.15
2018-01-17T01:19:42.986Z,84.23
2018-01-17T01:22:10.918Z,84.48
2018-01-17T01:24:38.580Z,84.29
2018-01-17T01:27:06.184Z,84.19
2018-01-17T01:29:33.746Z,84.23
2018-01-17T01:32:01.335Z,84.08
2018-01-17T01:34:28.898Z,84.13
2018-01-17T01:36:56.481Z,84.22
2018-01-17T01:39:24.076Z,84.36
2018-01-17T01:41:51.635Z,84.43
2018-01-17T01:44:19.201Z,84.39
2018-01-17T01:46:46.804Z,84.45
2018-01-17T01:49:14.405Z,84.33
2018-01-17T01:51:41.955Z,84.28
2018-01-17T01:54:09.556Z,84.21
2018-01-17T01:56:37.388Z,84.35
2018-01-17T01:59:04.973Z,84.34
2018-01-17T02:01:32.551Z,84.22
2018-01-17T02:04:00.090Z,84.17
2018-01-17T02:06:27.708Z,84.06
2018-01-17T02:08:55.324Z,83.93
2018-01-17T02:11:23.150Z,84.05
2018-01-17T02:13:50.726Z,83.92
2018-01-17T02:16:18.295Z,83.94
2018-01-17T02:18:45.848Z,84.29
2018-01-17T02:21:13.437Z,84.09
2018-01-17T02:23:41.035Z,83.85
2018-01-17T02:26:08.607Z,83.66
2018-01-17T02:28:36.233Z,83.95
2018-01-17T02:31:03.863Z,84.15
2018-01-17T02:33:31.703Z,84.37
2018-01-17T02:35:59.282Z,84.40
2018-01-17T02:38:26.827Z,84.42
2018-01-17T02:40:54.404Z,84.71
2018-01-17T02:43:21.988Z,84.83
2018-01-17T02:45:49.602Z,84.79
2018-01-17T02:48:17.205Z,84.83
2018-01-17T02:50:44.996Z,85.05
2018-01-17T02:53:12.539Z,85.38
2018-01-17T02:55:40.473Z,85.38
2018-01-17T02:58:08.334Z,85.13
2018-01-17T03:00:36.306Z,85.16
2018-01-17T03:03:04.196Z,85.64
2018-01-17T03:05:31.735Z,85.70
2018-01-17T03:07:59.305Z,85.65
2018-01-17T03:10:26.847Z,85.36
2018-01-17T03:12:54.463Z,85.14
2018-01-17T03:15:22.023Z,85.49
2018-01-17T03:17:49.979Z,85.18
2018-01-17T03:20:17.576Z,85.22
2018-01-17T03:22:45.188Z,85.45
2018-01-17T03:25:12.859Z,85.46
2018-01-17T03:27:40.450Z,85.64
2018-01-17T03:30:08.051Z,85.87
2018-01-17T03:32:35.751Z,86.40
2018-01-17T03:35:03.397Z,86.27
2018-01-17T03:37:31.025Z,86.44
2018-01-17T03:39:58.657Z,86.43
2018-01-17T03:42:26.216Z,86.22
2018-01-17T03:44:53.834Z,86.20
2018-01-17T03:47:21.442Z,86.40
2018-01-17T03:49:49.056Z,86.43
2018-01-17T03:52:16.660Z,86.29
2018-01-17T03:54:44.244Z,86.44
2018-01-17T03:57:11.845Z,86.33
2018-01-17T03:59:39.416Z,86.50
2018-01-17T04:02:07.276Z,86.67
2018-01-17T04:04:35.210Z,86.75
2018-01-17T04:07:02.788Z,86.92
2018-01-17T04:09:30.372Z,87.11
2018-01-17T04:11:57.955Z,86.87
2018-01-17T04:14:25.800Z,86.76
2018-01-17T04:16:53.382Z,86.75
2018-01-17T04:19:21.234Z,87.00
2018-01-17T04:21:48.799Z,87.28
2018-01-17T04:24:16.361Z,87.22
2018-01-17T04:26:43.944Z,86.69
2018-01-17T04:29:11.773Z,86.83
2018-01-17T04:31:39.331Z,86.93
2018-01-17T04:34:06.918Z,86.65
2018-01-17T04:36:34.491Z,86.60
2018-01-17T04:39:02.131Z,86.27
2018-01-17T04:41:29.712Z,86.54
2018-01-17T04:43:57.276Z,86.55
2018-01-17T04:46:24.867Z,86.13
2018-01-17T04:48:52.425Z,85.94
2018-01-17T04:51:20.022Z,85.99
2018-01-17T04:53:47.593Z,85.83
2018-01-17T04:56:15.150Z,85.73
2018-01-17T04:58:43.012Z,85.84
2018-01-17T05:01:10.583Z,85.91
2018-01-17T05:03:38.190Z,85.69
2018-01-17T05:06:06.002Z,85.98
2018-01-17T05:08:33.559Z,85.76
2018-01-17T05:11:01.143Z,85.62
2018-01-17T05:13:28.698Z,85.76
2018-01-17T05:15:56.281Z,85.61
2018-01-17T05:18:23.826Z,85.58
2018-01-17T05:20:51.520Z,85.94
2018-01-17T05:23:19.122Z,85.79
2018-01-17T05:25:46.997Z,86.18
2018-01-17T05:28:14.634Z,85.81
2018-01-17T05:30:42.528Z,85.73
2018-01-17T05:33:10.119Z,85.64
2018-01-17T05:35:37.955Z,85.64
2018-01-17T05:38:05.521Z,85.44
2018-01-17T05:40:33.391Z,85.23
2018-01-17T05:43:00.975Z,85.14
2018-01-17T05:45:28.623Z,84.80
2018-01-17T05:47:56.437Z,85.05
2018-01-17T05:50:24.245Z,85.00
2018-01-17T05:52:51.852Z,85.32
2018-01-17T05:55:19.435Z,85.35
2018-01-17T05:57:47.056Z,85.45
2018-01-17T06:00:14.665Z,85.07
2018-01-17T06:02:42.213Z,85.16
2018-01-17T06:05:09.850Z,85.69
2018-01-17T06:07:37.478Z,85.37
2018-01-17T06:10:05.051Z,85.31
2018-01-17T06:12:32.674Z,85.54
2018-01-17T06:15:00.265Z,85.48
2018-01-17T06:17:27.860Z,85.20
2018-01-17T06:19:56.385Z,85.11
2018-01-17T06:22:23.965Z,85.17
2018-01-17T06:24:51.548Z,85.46
2018-01-17T06:27:19.174Z,85.44
2018-01-17T06:29:46.752Z,85.56
2018-01-17T06:32:14.362Z,85.37
2018-01-17T06:34:41.947Z,85.33
2018-01-17T06:37:09.551Z,85.22
2018-01-17T06:39:37.110Z,85.08
2018-01-17T06:42:04.758Z,85.12
2018-01-17T06:44:32.335Z,85.05
2018-01-17T06:46:59.995Z,85.36
2018-01-17T06:49:27.567Z,85.64
2018-01-17T06:51:55.300Z,85.49
2018-01-17T06:54:22.892Z,85.58
2018-01-17T06:56:50.749Z,85.22
2018-01-17T06:59:18.314Z,84.97
2018-01-17T07:01:45.915Z,85.37
2018-01-17T07:04:13.524Z,85.15
2018-01-17T07:06:41.119Z,85.18
2018-01-17T07:09:08.684Z,85.00
2018-01-17T07:11:36.258Z,84.78
2018-01-17T07:14:03.903Z,84.79
2018-01-17T07:16:31.475Z,84.73
2018-01-17T07:18:59.080Z,84.70
2018-01-17T07:21:26.629Z,84.92
2018-01-17T07:23:54.325Z,84.70
2018-01-17T07:26:21.943Z,84.65
2018-01-17T07:28:49.521Z,84.45
2018-01-17T07:31:17.109Z,84.33
2018-01-17T07:33:44.692Z,83.89
2018-01-17T07:36:12.317Z,83.78
2018-01-17T07:38:39.928Z,83.57
2018-01-17T07:41:07.525Z,83.90
2018-01-17T07:43:35.117Z,84.47
2018-01-17T07:46:03.093Z,84.28
2018-01-17T07:48:30.755Z,83.95
2018-01-17T07:50:58.738Z,84.09
2018-01-17T07:53:26.303Z,84.57
2018-01-17T07:55:53.920Z,85.02
2018-01-17T07:58:21.506Z,85.38
2018-01-17T08:00:49.077Z,85.43
2018-01-17T08:03:16.673Z,85.62
2018-01-17T08:05:44.241Z,86.07
2018-01-17T08:08:11.905Z,86.37
2018-01-17T08:10:39.498Z,87.16
2018-01-17T08:13:07.080Z,87.58
2018-01-17T08:15:34.674Z,87.94
2018-01-17T08:18:02.278Z,87.94
2018-01-17T08:20:29.863Z,88.24
2018-01-17T08:22:57.478Z,88.44
2018-01-17T08:25:25.064Z,88.49
2018-01-17T08:27:52.664Z,88.45
2018-01-17T08:30:20.232Z,88.64
2018-01-17T08:32:48.082Z,88.58
2018-01-17T08:35:15.652Z,89.03
2018-01-17T08:37:43.242Z,89.15
2018-01-17T08:40:10.864Z,89.20
2018-01-17T08:42:38.585Z,88.98
2018-01-17T08:45:06.233Z,89.00
2018-01-17T08:47:33.862Z,89.21
2018-01-17T08:50:01.434Z,89.17
2018-01-17T08:52:29.081Z,89.45
2018-01-17T08:54:56.656Z,89.58
2018-01-17T08:57:24.217Z,89.41
2018-01-17T08:59:51.822Z,89.36
2018-01-17T09:02:19.726Z,89.60
2018-01-17T09:04:47.299Z,89.69
2018-01-17T09:07:14.889Z,89.86
2018-01-17T09:09:42.478Z,89.88
2018-01-17T09:12:10.232Z,89.79
2018-01-17T09:14:38.114Z,90.06
2018-01-17T09:17:05.670Z,90.00
2018-01-17T09:19:33.275Z,90.33
2018-01-17T09:22:00.924Z,90.19
2018-01-17T09:24:28.518Z,90.18
2018-01-17T09:26:56.181Z,89.93
2018-01-17T09:29:23.749Z,89.95
2018-01-17T09:31:51.356Z,89.76
2018-01-17T09:34:18.920Z,89.90
2018-01-17T09:36:46.508Z,90.16
2018-01-17T09:39:14.095Z,90.59
2018-01-17T09:41:42.025Z,90.92
2018-01-17T09:44:09.641Z,90.79
2018-01-17T09:46:37.244Z,90.52
2018-01-17T09:49:04.901Z,90.47
2018-01-17T09:51:32.521Z,90.15
2018-01-17T09:54:00.124Z,90.45
2018-01-17T09:56:27.744Z,90.35
2018-01-17T10:01:29.293Z,90.14
2018-01-17T10:03:57.149Z,89.71
2018-01-17T10:06:24.734Z,89.59
2018-01-17T10:08:52.660Z,88.84
2018-01-17T10:11:20.198Z,88.24
2018-01-17T10:13:48.056Z,87.56
2018-01-17T10:16:15.654Z,87.65
2018-01-17T10:18:43.617Z,87.49
2018-01-17T10:21:11.485Z,87.47
2018-01-17T10:23:39.053Z,87.75
2018-01-17T10:26:06.666Z,87.03
2018-01-17T10:28:34.267Z,87.07
2018-01-17T10:31:01.845Z,87.07
2018-01-17T10:33:29.427Z,87.10
2018-01-17T10:35:56.990Z,87.27
2018-01-17T10:38:24.594Z,87.27
2018-01-17T10:40:52.193Z,87.54
2018-01-17T10:43:19.779Z,87.30
2018-01-17T10:45:47.375Z,87.21
2018-01-17T10:48:14.970Z,86.80
2018-01-17T10:50:42.567Z,87.15
2018-01-17T10:53:10.395Z,86.88
2018-01-17T10:55:37.992Z,85.56
2018-01-17T10:58:05.610Z,85.81
2018-01-17T11:00:38.824Z,85.63
2018-01-17T11:03:06.484Z,85.78
2018-01-17T11:05:34.062Z,84.43
2018-01-17T11:08:01.913Z,85.60
2018-01-17T11:10:29.505Z,85.13
2018-01-17T11:12:57.062Z,83.06
2018-01-17T11:15:24.705Z,83.24
2018-01-17T11:17:52.268Z,83.33
2018-01-17T11:20:19.871Z,83.23
2018-01-17T11:22:47.598Z,83.05
2018-01-17T11:25:15.666Z,82.71
2018-01-17T11:27:43.336Z,83.53
2018-01-17T11:30:11.005Z,84.18
2018-01-17T11:32:38.644Z,84.00
2018-01-17T11:35:06.201Z,85.00
2018-01-17T11:37:33.772Z,85.76
2018-01-17T11:40:01.408Z,85.58
2018-01-17T11:42:28.983Z,85.72
2018-01-17T11:44:56.564Z,85.54
2018-01-17T11:47:24.205Z,85.19
2018-01-17T11:49:51.829Z,85.59
2018-01-17T11:52:19.530Z,85.47
2018-01-17T11:54:47.106Z,86.25
2018-01-17T11:57:14.967Z,86.09
2018-01-17T11:59:42.596Z,86.29
2018-01-17T12:02:10.183Z,86.25
2018-01-17T12:04:37.832Z,86.47
2018-01-17T12:07:05.498Z,86.24
2018-01-17T12:09:33.842Z,86.42
2018-01-17T12:12:01.878Z,86.26
2018-01-17T12:14:29.530Z,86.69
2018-01-17T12:16:57.112Z,86.98
2018-01-17T12:19:24.726Z,86.81
2018-01-17T12:21:52.285Z,87.42
2018-01-17T12:24:19.899Z,87.13
2018-01-17T12:26:47.498Z,87.58
2018-01-17T12:29:15.071Z,87.69
2018-01-17T12:31:42.735Z,87.56
2018-01-17T12:34:10.356Z,87.98
2018-01-17T12:36:38.080Z,88.13
2018-01-17T12:39:05.996Z,88.32
2018-01-17T12:41:33.652Z,88.04
2018-01-17T12:44:01.479Z,88.18
2018-01-17T12:46:29.075Z,88.70
2018-01-17T12:48:56.681Z,88.45
2018-01-17T12:51:24.252Z,89.22
2018-01-17T12:53:51.908Z,89.28
2018-01-17T12:56:19.517Z,89.14
2018-01-17T12:58:47.162Z,89.53
2018-01-17T13:01:14.756Z,89.81
2018-01-17T13:03:42.352Z,90.08
2018-01-17T13:06:09.955Z,89.92
2018-01-17T13:08:37.576Z,90.03
2018-01-17T13:11:05.222Z,90.59
2018-01-17T13:13:32.976Z,90.95
2018-01-17T13:16:00.656Z,91.12
2018-01-17T13:18:28.303Z,91.49
2018-01-17T13:20:55.952Z,91.69
2018-01-17T13:23:23.552Z,92.00
2018-01-17T13:25:51.169Z,92.08
2018-01-17T13:28:18.760Z,92.34
2018-01-17T13:30:46.408Z,92.49
2018-01-17T13:33:14.024Z,92.52
2018-01-17T13:35:41.636Z,92.73
2018-01-17T13:38:09.686Z,92.59
2018-01-17T13:40:37.528Z,92.32
2018-01-17T13:43:05.130Z,92.13
2018-01-17T13:45:32.804Z,92.01
2018-01-17T13:48:00.432Z,91.76
2018-01-17T13:50:28.266Z,91.63
2018-01-17T13:52:56.361Z,91.28
2018-01-17T13:55:25.469Z,91.39
2018-01-17T13:57:53.240Z,90.96
2018-01-17T14:00:21.198Z,90.85
2018-01-17T14:02:48.773Z,90.34
2018-01-17T14:05:16.381Z,90.57
2018-01-17T14:07:43.993Z,90.64
2018-01-17T14:10:11.560Z,90.31
2018-01-17T14:12:39.292Z,90.13
2018-01-17T14:15:06.881Z,90.09
2018-01-17T14:17:34.471Z,90.16
2018-01-17T14:20:02.065Z,90.00
2018-01-17T14:22:29.630Z,90.09
2018-01-17T14:24:57.195Z,89.91
2018-01-17T14:27:24.777Z,89.83
2018-01-17T14:29:52.638Z,90.12
2018-01-17T14:32:20.244Z,90.23
2018-01-17T14:34:47.871Z,90.13
2018-01-17T14:37:15.468Z,89.81
2018-01-17T14:39:43.107Z,90.15
2018-01-17T14:42:10.685Z,88.89
2018-01-17T14:44:38.518Z,88.97
2018-01-17T14:47:06.154Z,88.84
2018-01-17T14:49:33.788Z,88.45
2018-01-17T14:52:01.458Z,88.04
2018-01-17T14:54:29.059Z,88.05
2018-01-17T14:56:56.766Z,87.78
2018-01-17T14:59:24.342Z,87.69
2018-01-17T15:01:51.906Z,87.85
2018-01-17T15:04:19.818Z,87.78
2018-01-17T15:06:47.403Z,87.41
2018-01-17T15:09:15.182Z,87.16
2018-01-17T15:11:42.730Z,87.44
2018-01-17T15:14:10.618Z,87.46
2018-01-17T15:16:38.249Z,87.50
2018-01-17T15:19:05.994Z,87.28
2018-01-17T15:21:33.639Z,87.68
2018-01-17T15:24:01.521Z,87.24
2018-01-17T15:26:29.097Z,87.23
2018-01-17T15:28:56.769Z,87.17
2018-01-17T15:31:24.434Z,87.04
2018-01-17T15:33:52.048Z,87.19
2018-01-17T15:36:19.615Z,86.66
2018-01-17T15:38:47.259Z,86.97
2018-01-17T15:41:14.898Z,86.74
2018-01-17T15:43:42.500Z,86.87
2018-01-17T15:46:10.081Z,87.15
2018-01-17T15:48:37.645Z,87.56
2018-01-17T15:51:05.239Z,87.66
2018-01-17T15:53:32.818Z,87.51
2018-01-17T15:56:00.454Z,87.62
2018-01-17T15:58:28.149Z,87.50
2018-01-17T16:00:55.722Z,87.25
2018-01-17T16:03:23.282Z,87.67
2018-01-17T16:05:50.875Z,87.12
2018-01-17T16:08:18.448Z,86.95
2018-01-17T16:10:46.117Z,86.97
2018-01-17T16:13:13.976Z,86.83
2018-01-17T16:15:41.863Z,86.13
2018-01-17T16:18:09.814Z,86.42
2018-01-17T16:20:37.404Z,86.38
2018-01-17T16:23:04.971Z,86.25
2018-01-17T16:25:32.909Z,86.56
2018-01-17T16:28:00.468Z,85.90
2018-01-17T16:30:28.445Z,85.89
2018-01-17T16:32:56.055Z,85.88
2018-01-17T16:35:23.756Z,85.43
2018-01-17T16:37:51.318Z,85.07
2018-01-17T16:40:18.926Z,85.65
2018-01-17T16:42:46.539Z,85.42
2018-01-17T16:45:14.141Z,85.06
2018-01-17T16:47:41.692Z,84.96
2018-01-17T16:50:09.528Z,84.73
2018-01-17T16:52:37.197Z,84.58
2018-01-17T16:55:04.771Z,84.73
2018-01-17T16:57:32.372Z,84.44
2018-01-17T16:59:59.969Z,84.37
2018-01-17T17:02:27.524Z,83.83
2018-01-17T17:04:55.135Z,83.41
2018-01-17T17:07:22.730Z,83.74
2018-01-17T17:09:50.301Z,83.87
2018-01-17T17:12:17.861Z,83.59
2018-01-17T17:14:45.417Z,83.18
2018-01-17T17:17:13.054Z,83.42
2018-01-17T17:19:40.983Z,83.44
2018-01-17T17:22:08.616Z,83.09
2018-01-17T17:24:36.243Z,82.86
2018-01-17T17:27:03.840Z,82.49
2018-01-17T17:29:31.463Z,82.72
2018-01-17T17:31:59.047Z,82.94
2018-01-17T17:34:26.633Z,82.80
2018-01-17T17:36:54.175Z,83.01
2018-01-17T17:39:21.760Z,82.54
2018-01-17T17:41:49.395Z,82.43
2018-01-17T17:44:17.011Z,82.89
2018-01-17T17:46:44.611Z,82.55
2018-01-17T17:49:12.181Z,82.65
2018-01-17T17:51:39.739Z,82.32
2018-01-17T17:54:07.421Z,82.25
2018-01-17T17:56:35.048Z,82.34
2018-01-17T17:59:02.670Z,82.05
2018-01-17T18:01:30.226Z,82.48
2018-01-17T18:03:57.798Z,81.38
2018-01-17T18:06:25.761Z,81.89
2018-01-17T18:08:53.323Z,81.98
2018-01-17T18:11:21.028Z,81.79
2018-01-17T18:13:48.619Z,81.77
2018-01-17T18:16:16.628Z,81.75
2018-01-17T18:18:44.245Z,81.89
2018-01-17T18:21:12.140Z,81.85
2018-01-17T18:23:39.727Z,81.78
2018-01-17T18:26:07.291Z,81.92
2018-01-17T18:28:34.864Z,81.81
2018-01-17T18:31:02.509Z,81.82
2018-01-17T18:33:30.059Z,81.65
2018-01-17T18:35:57.676Z,81.65
2018-01-17T18:38:25.595Z,81.58
2018-01-17T18:40:53.172Z,81.97
2018-01-17T18:43:20.758Z,81.92
2018-01-17T18:45:48.415Z,82.13
2018-01-17T18:48:16.082Z,82.24
2018-01-17T18:50:43.637Z,82.53
2018-01-17T18:53:11.229Z,82.85
2018-01-17T18:55:38.852Z,82.47
2018-01-17T18:58:06.524Z,82.57
2018-01-17T19:00:34.349Z,82.91
2018-01-17T19:03:01.913Z,82.96
2018-01-17T19:05:29.509Z,82.79
2018-01-17T19:07:57.115Z,82.99
2018-01-17T19:10:24.680Z,82.73
2018-01-17T19:12:52.561Z,83.42
2018-01-17T19:15:20.128Z,83.36
2018-01-17T19:17:47.722Z,83.61
2018-01-17T19:20:15.326Z,83.73
2018-01-17T19:22:42.981Z,83.88
2018-01-17T19:25:10.870Z,83.50
2018-01-17T19:27:38.433Z,83.59
2018-01-17T19:30:06.012Z,83.59
2018-01-17T19:32:33.651Z,83.48
2018-01-17T19:35:01.235Z,83.28
2018-01-17T19:37:28.901Z,83.41
2018-01-17T19:39:56.507Z,83.49
2018-01-17T19:42:24.082Z,83.50
2018-01-17T19:44:52.592Z,83.07
2018-01-17T19:47:20.135Z,83.34
2018-01-17T19:49:47.733Z,83.37
2018-01-17T19:52:15.332Z,82.81
2018-01-17T19:54:42.999Z,83.00
2018-01-17T19:57:10.611Z,82.73
2018-01-17T19:59:38.478Z,82.67
2018-01-17T20:02:06.131Z,82.78
2018-01-17T20:04:33.993Z,82.54
2018-01-17T20:07:01.554Z,82.81
2018-01-17T20:09:29.199Z,82.85
2018-01-17T20:11:56.835Z,82.68
2018-01-17T20:14:24.448Z,82.38
2018-01-17T20:16:51.996Z,82.32
2018-01-17T20:19:19.563Z,82.57
2018-01-17T20:21:47.136Z,82.52
2018-01-17T20:24:14.744Z,82.44
2018-01-17T20:26:42.482Z,82.62
2018-01-17T20:29:10.054Z,82.68
2018-01-17T20:31:37.702Z,82.56
2018-01-17T20:34:05.362Z,82.61
2018-01-17T20:36:32.926Z,82.46
2018-01-17T20:39:00.560Z,82.47
2018-01-17T20:41:28.230Z,82.52
2018-01-17T20:43:55.865Z,82.01
2018-01-17T20:46:23.505Z,82.26
2018-01-17T20:48:51.107Z,82.15
2018-01-17T20:51:18.767Z,81.74
2018-01-17T20:53:46.430Z,81.95
2018-01-17T20:56:14.266Z,81.55
2018-01-17T20:58:41.893Z,81.57
2018-01-17T21:01:09.449Z,81.53
2018-01-17T21:03:37.077Z,81.77
2018-01-17T21:06:04.672Z,81.88
2018-01-17T21:08:32.312Z,81.38
2018-01-17T21:11:00.089Z,81.09
2018-01-17T21:13:27.673Z,81.43
2018-01-17T21:15:55.403Z,81.52
2018-01-17T21:18:22.996Z,81.63
2018-01-17T21:20:50.684Z,81.32
2018-01-17T21:23:18.305Z,81.44
2018-01-17T21:25:46.020Z,81.71
2018-01-17T21:28:13.624Z,81.49
2018-01-17T21:30:41.238Z,81.19
2018-01-17T21:33:08.813Z,81.30
2018-01-17T21:35:36.432Z,81.42
2018-01-17T21:38:04.059Z,81.82
2018-01-17T21:40:31.940Z,82.06
2018-01-17T21:43:05.243Z,82.18
2018-01-17T21:45:38.411Z,81.83
2018-01-17T21:48:06.065Z,81.89
2018-01-17T21:50:33.729Z,82.02
2018-01-17T21:53:01.383Z,81.62
2018-01-17T21:55:28.978Z,81.80
2018-01-17T21:57:56.557Z,81.71
2018-01-17T22:00:24.157Z,81.64
2018-01-17T22:02:51.784Z,81.71
2018-01-17T22:05:19.420Z,81.82
2018-01-17T22:07:47.063Z,81.62
2018-01-17T22:10:14.928Z,81.97
2018-01-17T22:12:42.554Z,81.72
2018-01-17T22:15:10.113Z,81.32
2018-01-17T22:17:37.770Z,81.78
2018-01-17T22:20:05.351Z,81.30
2018-01-17T22:22:32.950Z,81.70
2018-01-17T22:25:00.534Z,82.38
2018-01-17T22:27:28.124Z,82.42
2018-01-17T22:29:55.735Z,82.35
2018-01-17T22:32:23.303Z,82.37
2018-01-17T22:34:51.003Z,82.44
2018-01-17T22:37:18.600Z,82.79
2018-01-17T22:39:46.192Z,82.36
2018-01-17T22:42:13.800Z,82.53
2018-01-17T22:44:41.625Z,82.51
2018-01-17T22:47:09.254Z,82.77
2018-01-17T22:49:36.887Z,82.03
2018-01-17T22:52:04.520Z,82.69
2018-01-17T22:54:32.186Z,82.92
2018-01-17T22:56:59.747Z,83.70
2018-01-17T22:59:27.391Z,83.74
2018-01-17T23:01:54.974Z,83.97
2018-01-17T23:04:22.615Z,84.10
2018-01-17T23:06:50.278Z,84.10
2018-01-17T23:09:17.900Z,83.82
2018-01-17T23:11:45.504Z,83.53
2018-01-17T23:14:13.382Z,83.42
2018-01-17T23:16:41.042Z,83.18
2018-01-17T23:19:08.622Z,83.10
2018-01-17T23:21:36.162Z,82.74
2018-01-17T23:24:03.757Z,82.40
2018-01-17T23:26:31.337Z,82.77
2018-01-17T23:28:58.957Z,82.93
2018-01-17T23:31:26.528Z,82.77
2018-01-17T23:33:54.082Z,83.04
2018-01-17T23:36:21.671Z,83.24
2018-01-17T23:38:49.247Z,82.89
2018-01-17T23:41:16.820Z,83.10
2018-01-17T23:43:44.382Z,82.90
2018-01-17T23:46:11.933Z,83.15
2018-01-17T23:48:39.496Z,83.36
2018-01-17T23:51:07.049Z,83.37
2018-01-17T23:53:34.654Z,83.06
2018-01-17T23:56:02.263Z,83.21
2018-01-17T23:58:30.083Z,82.66
